sensor_id;sensor_type;location;lat;lon;timestamp;pressure;altitude;pressure_sealevel;temperature;humidity
13420;BME280;6781;58.440;15.470;2023-03-03T00:02:23;101675.28;;;1.10;100.00
13420;BME280;6781;58.440;15.470;2023-03-03T00:04:50;101666.81;;;1.08;100.00
13420;BME280;6781;58.440;15.470;2023-03-03T00:07:18;101674.41;;;1.11;100.00
13420;BME280;6781;58.440;15.470;2023-03-03T00:09:47;101653.88;;;1.16;100.00
13420;BME280;6781;58.440;15.470;2023-03-03T00:12:17;101649.41;;;1.25;100.00
13420;BME280;6781;58.440;15.470;2023-03-03T00:14:46;101625.56;;;1.25;100.00
13420;BME280;6781;58.440;15.470;2023-03-03T00:17:14;101608.53;;;1.25;100.00
13420;BME280;6781;58.440;15.470;2023-03-03T00:19:46;101594.88;;;1.26;100.00
13420;BME280;6781;58.440;15.470;2023-03-03T00:22:15;101584.50;;;1.33;100.00
13420;BME280;6781;58.440;15.470;2023-03-03T00:24:44;101577.72;;;1.32;100.00
13420;BME280;6781;58.440;15.470;2023-03-03T00:27:15;101581.06;;;1.34;100.00
13420;BME280;6781;58.440;15.470;2023-03-03T00:29:44;101576.84;;;1.33;100.00
13420;BME280;6781;58.440;15.470;2023-03-03T00:32:16;101569.09;;;1.36;100.00
13420;BME280;6781;58.440;15.470;2023-03-03T00:34:43;101556.41;;;1.33;100.00
13420;BME280;6781;58.440;15.470;2023-03-03T00:37:18;101529.81;;;1.40;100.00
13420;BME280;6781;58.440;15.470;2023-03-03T00:39:48;101509.34;;;1.41;100.00
13420;BME280;6781;58.440;15.470;2023-03-03T00:42:15;101505.13;;;1.39;100.00
13420;BME280;6781;58.440;15.470;2023-03-03T00:44:43;101498.31;;;1.39;100.00
13420;BME280;6781;58.440;15.470;2023-03-03T00:47:13;101494.84;;;1.42;100.00
13420;BME280;6781;58.440;15.470;2023-03-03T00:49:44;101476.19;;;1.38;100.00
13420;BME280;6781;58.440;15.470;2023-03-03T00:52:11;101482.16;;;1.39;100.00
13420;BME280;6781;58.440;15.470;2023-03-03T00:54:39;101473.69;;;1.37;100.00
13420;BME280;6781;58.440;15.470;2023-03-03T00:57:08;101456.75;;;1.33;100.00
13420;BME280;6781;58.440;15.470;2023-03-03T00:59:36;101455.09;;;1.32;100.00
13420;BME280;6781;58.440;15.470;2023-03-03T01:02:03;101450.13;;;1.25;100.00
13420;BME280;6781;58.440;15.470;2023-03-03T01:04:30;101452.06;;;1.17;100.00
13420;BME280;6781;58.440;15.470;2023-03-03T01:06:57;101447.59;;;1.25;100.00
13420;BME280;6781;58.440;15.470;2023-03-03T01:09:24;101442.59;;;1.21;100.00
13420;BME280;6781;58.440;15.470;2023-03-03T01:11:50;101435.69;;;1.24;100.00
13420;BME280;6781;58.440;15.470;2023-03-03T01:14:19;101428.03;;;1.24;100.00
13420;BME280;6781;58.440;15.470;2023-03-03T01:16:46;101423.88;;;1.20;100.00
13420;BME280;6781;58.440;15.470;2023-03-03T01:19:12;101431.47;;;1.23;100.00
13420;BME280;6781;58.440;15.470;2023-03-03T01:21:39;101433.13;;;1.24;100.00
13420;BME280;6781;58.440;15.470;2023-03-03T01:24:06;101410.69;;;1.36;100.00
13420;BME280;6781;58.440;15.470;2023-03-03T01:26:32;101395.53;;;1.29;100.00
13420;BME280;6781;58.440;15.470;2023-03-03T01:28:59;101393.84;;;1.28;100.00
13420;BME280;6781;58.440;15.470;2023-03-03T01:31:27;101375.09;;;1.29;100.00
13420;BME280;6781;58.440;15.470;2023-03-03T01:33:54;101375.25;;;1.23;100.00
13420;BME280;6781;58.440;15.470;2023-03-03T01:36:24;101378.69;;;1.22;100.00
13420;BME280;6781;58.440;15.470;2023-03-03T01:38:51;101387.31;;;1.18;100.00
13420;BME280;6781;58.440;15.470;2023-03-03T01:41:18;101380.41;;;1.22;100.00
13420;BME280;6781;58.440;15.470;2023-03-03T01:43:46;101383.94;;;1.18;100.00
13420;BME280;6781;58.440;15.470;2023-03-03T01:49:04;101384.06;;;1.13;100.00
13420;BME280;6781;58.440;15.470;2023-03-03T01:51:33;101383.28;;;1.10;100.00
13420;BME280;6781;58.440;15.470;2023-03-03T01:54:01;101386.06;;;1.02;100.00
13420;BME280;6781;58.440;15.470;2023-03-03T01:56:29;101386.16;;;0.97;100.00
13420;BME280;6781;58.440;15.470;2023-03-03T01:58:57;101383.94;;;0.85;100.00
13420;BME280;6781;58.440;15.470;2023-03-03T02:01:25;101392.50;;;0.83;100.00
13420;BME280;6781;58.440;15.470;2023-03-03T02:03:53;101392.81;;;0.71;100.00
13420;BME280;6781;58.440;15.470;2023-03-03T02:06:23;101393.69;;;0.70;100.00
13420;BME280;6781;58.440;15.470;2023-03-03T02:08:52;101405.75;;;0.64;100.00
13420;BME280;6781;58.440;15.470;2023-03-03T02:11:20;101416.84;;;0.62;100.00
13420;BME280;6781;58.440;15.470;2023-03-03T02:13:47;101424.78;;;0.51;100.00
13420;BME280;6781;58.440;15.470;2023-03-03T02:16:14;101418.00;;;0.50;100.00
13420;BME280;6781;58.440;15.470;2023-03-03T02:18:40;101427.47;;;0.45;100.00
13420;BME280;6781;58.440;15.470;2023-03-03T02:21:08;101436.94;;;0.40;100.00
13420;BME280;6781;58.440;15.470;2023-03-03T02:23:38;101439.50;;;0.40;100.00
13420;BME280;6781;58.440;15.470;2023-03-03T02:26:12;101445.59;;;0.33;100.00
13420;BME280;6781;58.440;15.470;2023-03-03T02:28:41;101440.50;;;0.33;100.00
13420;BME280;6781;58.440;15.470;2023-03-03T02:31:08;101443.88;;;0.35;100.00
13420;BME280;6781;58.440;15.470;2023-03-03T02:33:37;101449.03;;;0.32;100.00
13420;BME280;6781;58.440;15.470;2023-03-03T02:36:04;101450.13;;;0.22;100.00
13420;BME280;6781;58.440;15.470;2023-03-03T02:38:33;101460.28;;;0.23;100.00
13420;BME280;6781;58.440;15.470;2023-03-03T02:41:02;101464.75;;;0.14;100.00
13420;BME280;6781;58.440;15.470;2023-03-03T02:43:38;101477.47;;;0.15;100.00
13420;BME280;6781;58.440;15.470;2023-03-03T02:46:07;101481.91;;;0.06;100.00
13420;BME280;6781;58.440;15.470;2023-03-03T02:48:34;101491.34;;;0.02;100.00
13420;BME280;6781;58.440;15.470;2023-03-03T02:51:00;101494.63;;;0.07;100.00
13420;BME280;6781;58.440;15.470;2023-03-03T02:53:27;101497.09;;;0.12;100.00
13420;BME280;6781;58.440;15.470;2023-03-03T02:55:54;101496.34;;;0.07;100.00
13420;BME280;6781;58.440;15.470;2023-03-03T02:58:20;101495.47;;;0.08;100.00
13420;BME280;6781;58.440;15.470;2023-03-03T03:00:49;101503.16;;;0.06;100.00
13420;BME280;6781;58.440;15.470;2023-03-03T03:03:15;101509.00;;;0.11;100.00
13420;BME280;6781;58.440;15.470;2023-03-03T03:08:18;101503.66;;;0.22;100.00
13420;BME280;6781;58.440;15.470;2023-03-03T03:10:45;101496.75;;;0.27;100.00
13420;BME280;6781;58.440;15.470;2023-03-03T03:13:11;101483.88;;;0.33;100.00
13420;BME280;6781;58.440;15.470;2023-03-03T03:15:39;101482.84;;;0.40;100.00
13420;BME280;6781;58.440;15.470;2023-03-03T03:18:08;101475.09;;;0.45;100.00
13420;BME280;6781;58.440;15.470;2023-03-03T03:20:35;101470.63;;;0.54;100.00
13420;BME280;6781;58.440;15.470;2023-03-03T03:23:02;101451.31;;;0.80;100.00
13420;BME280;6781;58.440;15.470;2023-03-03T03:25:29;101426.63;;;0.80;100.00
13420;BME280;6781;58.440;15.470;2023-03-03T03:27:55;101410.31;;;0.86;100.00
13420;BME280;6781;58.440;15.470;2023-03-03T03:30:22;101388.13;;;0.88;100.00
13420;BME280;6781;58.440;15.470;2023-03-03T03:32:49;101371.28;;;0.81;100.00
13420;BME280;6781;58.440;15.470;2023-03-03T03:35:17;101375.25;;;0.92;100.00
13420;BME280;6781;58.440;15.470;2023-03-03T03:37:44;101353.72;;;1.01;100.00
13420;BME280;6781;58.440;15.470;2023-03-03T03:40:11;101340.25;;;0.96;100.00
13420;BME280;6781;58.440;15.470;2023-03-03T03:42:37;101324.84;;;0.99;100.00
13420;BME280;6781;58.440;15.470;2023-03-03T03:45:06;101313.41;;;1.12;100.00
13420;BME280;6781;58.440;15.470;2023-03-03T03:47:33;101288.75;;;1.11;100.00
13420;BME280;6781;58.440;15.470;2023-03-03T03:49:59;101281.88;;;1.13;100.00
13420;BME280;6781;58.440;15.470;2023-03-03T03:52:30;101272.34;;;1.20;100.00
13420;BME280;6781;58.440;15.470;2023-03-03T03:54:57;101261.97;;;1.24;100.00
13420;BME280;6781;58.440;15.470;2023-03-03T03:57:23;101253.28;;;1.30;100.00
13420;BME280;6781;58.440;15.470;2023-03-03T03:59:50;101242.75;;;1.41;100.00
13420;BME280;6781;58.440;15.470;2023-03-03T04:02:17;101229.41;;;1.31;100.00
13420;BME280;6781;58.440;15.470;2023-03-03T04:04:44;101223.28;;;1.37;100.00
13420;BME280;6781;58.440;15.470;2023-03-03T04:07:10;101227.00;;;1.26;100.00
13420;BME280;6781;58.440;15.470;2023-03-03T04:09:38;101230.44;;;1.25;100.00
13420;BME280;6781;58.440;15.470;2023-03-03T04:12:05;101223.19;;;1.40;100.00
13420;BME280;6781;58.440;15.470;2023-03-03T04:14:32;101217.44;;;1.33;100.00
13420;BME280;6781;58.440;15.470;2023-03-03T04:16:59;101216.31;;;1.42;100.00
13420;BME280;6781;58.440;15.470;2023-03-03T04:19:25;101212.97;;;1.40;100.00
13420;BME280;6781;58.440;15.470;2023-03-03T04:21:52;101211.13;;;1.45;100.00
13420;BME280;6781;58.440;15.470;2023-03-03T04:24:19;101202.75;;;1.40;100.00
13420;BME280;6781;58.440;15.470;2023-03-03T04:26:47;101193.28;;;1.43;100.00
13420;BME280;6781;58.440;15.470;2023-03-03T04:29:13;101189.69;;;1.49;100.00
13420;BME280;6781;58.440;15.470;2023-03-03T04:31:40;101187.63;;;1.34;100.00
13420;BME280;6781;58.440;15.470;2023-03-03T04:34:07;101181.25;;;1.47;100.00
13420;BME280;6781;58.440;15.470;2023-03-03T04:36:34;101173.78;;;1.41;100.00
13420;BME280;6781;58.440;15.470;2023-03-03T04:39:00;101181.56;;;1.36;100.00
13420;BME280;6781;58.440;15.470;2023-03-03T04:41:27;101186.03;;;1.29;100.00
13420;BME280;6781;58.440;15.470;2023-03-03T04:43:55;101186.63;;;1.38;100.00
13420;BME280;6781;58.440;15.470;2023-03-03T04:46:22;101177.00;;;1.46;100.00
13420;BME280;6781;58.440;15.470;2023-03-03T04:48:49;101178.59;;;1.50;100.00
13420;BME280;6781;58.440;15.470;2023-03-03T04:51:15;101170.91;;;1.50;100.00
13420;BME280;6781;58.440;15.470;2023-03-03T04:53:42;101169.28;;;1.47;100.00
13420;BME280;6781;58.440;15.470;2023-03-03T04:56:09;101181.34;;;1.44;100.00
13420;BME280;6781;58.440;15.470;2023-03-03T04:58:36;101175.84;;;1.56;100.00
13420;BME280;6781;58.440;15.470;2023-03-03T05:01:04;101172.03;;;1.41;100.00
13420;BME280;6781;58.440;15.470;2023-03-03T05:03:31;101178.09;;;1.39;100.00
13420;BME280;6781;58.440;15.470;2023-03-03T05:05:58;101161.88;;;1.40;100.00
13420;BME280;6781;58.440;15.470;2023-03-03T05:08:25;101157.44;;;1.45;100.00
13420;BME280;6781;58.440;15.470;2023-03-03T05:10:52;101154.16;;;1.41;100.00
13420;BME280;6781;58.440;15.470;2023-03-03T05:13:19;101139.28;;;1.54;100.00
13420;BME280;6781;58.440;15.470;2023-03-03T05:15:49;101135.53;;;1.64;100.00
13420;BME280;6781;58.440;15.470;2023-03-03T05:18:18;101126.44;;;1.55;100.00
13420;BME280;6781;58.440;15.470;2023-03-03T05:20:45;101121.75;;;1.68;100.00
13420;BME280;6781;58.440;15.470;2023-03-03T05:23:11;101117.72;;;1.61;100.00
13420;BME280;6781;58.440;15.470;2023-03-03T05:25:39;101116.41;;;1.49;100.00
13420;BME280;6781;58.440;15.470;2023-03-03T05:28:05;101113.13;;;1.46;100.00
13420;BME280;6781;58.440;15.470;2023-03-03T05:30:32;101110.69;;;1.43;100.00
13420;BME280;6781;58.440;15.470;2023-03-03T05:32:59;101108.91;;;1.45;100.00
13420;BME280;6781;58.440;15.470;2023-03-03T05:35:27;101097.69;;;1.49;100.00
13420;BME280;6781;58.440;15.470;2023-03-03T05:37:54;101104.63;;;1.45;100.00
13420;BME280;6781;58.440;15.470;2023-03-03T05:40:22;101096.06;;;1.46;100.00
13420;BME280;6781;58.440;15.470;2023-03-03T05:42:49;101094.34;;;1.47;100.00
13420;BME280;6781;58.440;15.470;2023-03-03T05:45:15;101098.69;;;1.45;100.00
13420;BME280;6781;58.440;15.470;2023-03-03T05:47:44;101097.22;;;1.38;100.00
13420;BME280;6781;58.440;15.470;2023-03-03T05:50:11;101094.75;;;1.35;100.00
13420;BME280;6781;58.440;15.470;2023-03-03T05:52:39;101107.78;;;1.27;100.00
13420;BME280;6781;58.440;15.470;2023-03-03T05:55:06;101095.66;;;1.34;100.00
13420;BME280;6781;58.440;15.470;2023-03-03T05:57:33;101096.63;;;1.29;100.00
13420;BME280;6781;58.440;15.470;2023-03-03T06:00:01;101106.16;;;1.24;100.00
13420;BME280;6781;58.440;15.470;2023-03-03T06:02:27;101101.16;;;1.21;100.00
13420;BME280;6781;58.440;15.470;2023-03-03T06:04:54;101109.78;;;1.17;100.00
13420;BME280;6781;58.440;15.470;2023-03-03T06:07:21;101117.44;;;1.17;100.00
13420;BME280;6781;58.440;15.470;2023-03-03T06:09:49;101118.16;;;1.22;100.00
13420;BME280;6781;58.440;15.470;2023-03-03T06:12:16;101112.28;;;1.19;100.00
13420;BME280;6781;58.440;15.470;2023-03-03T06:14:42;101110.38;;;1.25;100.00
13420;BME280;6781;58.440;15.470;2023-03-03T06:17:09;101102.38;;;1.36;100.00
13420;BME280;6781;58.440;15.470;2023-03-03T06:19:36;101093.88;;;1.36;100.00
13420;BME280;6781;58.440;15.470;2023-03-03T06:22:03;101090.34;;;1.40;100.00
13420;BME280;6781;58.440;15.470;2023-03-03T06:24:29;101091.13;;;1.42;100.00
13420;BME280;6781;58.440;15.470;2023-03-03T06:26:58;101097.00;;;1.44;100.00
13420;BME280;6781;58.440;15.470;2023-03-03T06:29:25;101090.91;;;1.48;100.00
13420;BME280;6781;58.440;15.470;2023-03-03T06:31:51;101078.03;;;1.51;100.00
13420;BME280;6781;58.440;15.470;2023-03-03T06:34:18;101077.16;;;1.52;100.00
13420;BME280;6781;58.440;15.470;2023-03-03T06:36:45;101078.81;;;1.53;100.00
13420;BME280;6781;58.440;15.470;2023-03-03T06:39:12;101087.38;;;1.52;100.00
13420;BME280;6781;58.440;15.470;2023-03-03T06:41:38;101083.25;;;1.48;100.00
13420;BME280;6781;58.440;15.470;2023-03-03T06:44:09;101089.97;;;1.50;100.00
13420;BME280;6781;58.440;15.470;2023-03-03T06:46:36;101089.88;;;1.53;100.00
13420;BME280;6781;58.440;15.470;2023-03-03T06:49:03;101096.09;;;1.71;100.00
13420;BME280;6781;58.440;15.470;2023-03-03T06:51:30;101095.91;;;1.76;100.00
13420;BME280;6781;58.440;15.470;2023-03-03T06:54:00;101093.47;;;1.73;100.00
13420;BME280;6781;58.440;15.470;2023-03-03T06:56:28;101090.97;;;1.71;100.00
13420;BME280;6781;58.440;15.470;2023-03-03T06:58:56;101093.47;;;1.73;100.00
13420;BME280;6781;58.440;15.470;2023-03-03T07:01:25;101100.97;;;1.77;100.00
13420;BME280;6781;58.440;15.470;2023-03-03T07:03:53;101094.84;;;1.81;100.00
13420;BME280;6781;58.440;15.470;2023-03-03T07:06:24;101092.38;;;2.03;100.00
13420;BME280;6781;58.440;15.470;2023-03-03T07:08:52;101083.09;;;2.01;100.00
13420;BME280;6781;58.440;15.470;2023-03-03T07:11:20;101088.22;;;2.01;100.00
13420;BME280;6781;58.440;15.470;2023-03-03T07:13:48;101068.16;;;2.13;100.00
13420;BME280;6781;58.440;15.470;2023-03-03T07:16:16;101068.09;;;2.15;100.00
13420;BME280;6781;58.440;15.470;2023-03-03T07:18:47;101058.53;;;2.20;100.00
13420;BME280;6781;58.440;15.470;2023-03-03T07:21:16;101068.66;;;2.23;100.00
13420;BME280;6781;58.440;15.470;2023-03-03T07:23:43;101061.75;;;2.25;100.00
13420;BME280;6781;58.440;15.470;2023-03-03T07:26:13;101057.28;;;2.30;100.00
13420;BME280;6781;58.440;15.470;2023-03-03T07:28:44;101056.28;;;2.34;100.00
13420;BME280;6781;58.440;15.470;2023-03-03T07:31:24;101056.94;;;2.39;100.00
13420;BME280;6781;58.440;15.470;2023-03-03T07:33:54;101058.69;;;2.39;100.00
13420;BME280;6781;58.440;15.470;2023-03-03T07:36:25;101060.94;;;2.46;100.00
13420;BME280;6781;58.440;15.470;2023-03-03T07:38:53;101056.50;;;2.51;100.00
13420;BME280;6781;58.440;15.470;2023-03-03T07:41:20;101055.53;;;2.54;100.00
13420;BME280;6781;58.440;15.470;2023-03-03T07:43:52;101050.13;;;2.61;100.00
13420;BME280;6781;58.440;15.470;2023-03-03T07:46:22;101052.81;;;2.58;100.00
13420;BME280;6781;58.440;15.470;2023-03-03T07:48:55;101046.69;;;2.63;100.00
13420;BME280;6781;58.440;15.470;2023-03-03T07:51:22;101039.88;;;2.61;100.00
13420;BME280;6781;58.440;15.470;2023-03-03T07:53:52;101026.31;;;2.59;100.00
13420;BME280;6781;58.440;15.470;2023-03-03T07:56:21;101024.53;;;2.61;100.00
13420;BME280;6781;58.440;15.470;2023-03-03T07:58:53;101029.53;;;2.65;100.00
13420;BME280;6781;58.440;15.470;2023-03-03T08:01:35;101033.56;;;2.70;100.00
13420;BME280;6781;58.440;15.470;2023-03-03T08:04:09;101025.72;;;2.75;100.00
13420;BME280;6781;58.440;15.470;2023-03-03T08:06:48;101028.88;;;2.81;100.00
13420;BME280;6781;58.440;15.470;2023-03-03T08:12:02;101012.81;;;2.98;100.00
13420;BME280;6781;58.440;15.470;2023-03-03T08:14:37;101006.69;;;3.02;100.00
13420;BME280;6781;58.440;15.470;2023-03-03T08:17:06;100994.25;;;3.13;100.00
13420;BME280;6781;58.440;15.470;2023-03-03T08:19:41;100997.97;;;3.26;100.00
13420;BME280;6781;58.440;15.470;2023-03-03T08:22:10;100992.84;;;3.26;100.00
13420;BME280;6781;58.440;15.470;2023-03-03T08:24:38;100994.66;;;3.24;100.00
13420;BME280;6781;58.440;15.470;2023-03-03T08:27:04;100988.09;;;3.17;100.00
13420;BME280;6781;58.440;15.470;2023-03-03T08:29:32;100996.56;;;3.19;100.00
13420;BME280;6781;58.440;15.470;2023-03-03T08:31:58;100991.31;;;3.22;100.00
13420;BME280;6781;58.440;15.470;2023-03-03T08:34:25;100990.78;;;3.35;100.00
13420;BME280;6781;58.440;15.470;2023-03-03T08:36:54;100985.47;;;3.39;100.00
13420;BME280;6781;58.440;15.470;2023-03-03T08:39:26;100964.34;;;3.53;100.00
13420;BME280;6781;58.440;15.470;2023-03-03T08:41:56;100962.06;;;3.66;100.00
13420;BME280;6781;58.440;15.470;2023-03-03T08:44:25;100950.84;;;3.68;100.00
13420;BME280;6781;58.440;15.470;2023-03-03T08:46:52;100935.81;;;3.79;100.00
13420;BME280;6781;58.440;15.470;2023-03-03T08:49:20;100930.94;;;3.92;100.00
13420;BME280;6781;58.440;15.470;2023-03-03T08:51:50;100936.63;;;3.99;100.00
13420;BME280;6781;58.440;15.470;2023-03-03T08:54:20;100931.09;;;3.89;100.00
13420;BME280;6781;58.440;15.470;2023-03-03T08:56:47;100929.84;;;3.98;100.00
13420;BME280;6781;58.440;15.470;2023-03-03T08:59:13;100928.31;;;3.93;100.00
13420;BME280;6781;58.440;15.470;2023-03-03T09:01:40;100928.94;;;3.99;100.00
13420;BME280;6781;58.440;15.470;2023-03-03T09:04:08;100920.19;;;4.03;100.00
13420;BME280;6781;58.440;15.470;2023-03-03T09:06:35;100902.88;;;4.25;100.00
13420;BME280;6781;58.440;15.470;2023-03-03T09:09:03;100909.38;;;4.32;100.00
13420;BME280;6781;58.440;15.470;2023-03-03T09:11:32;100908.91;;;4.24;100.00
13420;BME280;6781;58.440;15.470;2023-03-03T09:14:03;100904.53;;;4.26;100.00
13420;BME280;6781;58.440;15.470;2023-03-03T09:16:34;100899.56;;;4.23;100.00
13420;BME280;6781;58.440;15.470;2023-03-03T09:19:06;100897.00;;;4.40;100.00
13420;BME280;6781;58.440;15.470;2023-03-03T09:21:41;100897.09;;;4.39;100.00
13420;BME280;6781;58.440;15.470;2023-03-03T09:24:09;100885.25;;;4.53;100.00
13420;BME280;6781;58.440;15.470;2023-03-03T09:26:46;100886.28;;;4.67;100.00
13420;BME280;6781;58.440;15.470;2023-03-03T09:29:16;100880.09;;;4.71;100.00
13420;BME280;6781;58.440;15.470;2023-03-03T09:31:44;100872.38;;;4.88;100.00
13420;BME280;6781;58.440;15.470;2023-03-03T09:34:13;100872.22;;;4.91;100.00
13420;BME280;6781;58.440;15.470;2023-03-03T09:36:41;100862.69;;;4.93;100.00
13420;BME280;6781;58.440;15.470;2023-03-03T09:39:11;100844.03;;;4.89;100.00
13420;BME280;6781;58.440;15.470;2023-03-03T09:44:37;100830.47;;;5.03;100.00
13420;BME280;6781;58.440;15.470;2023-03-03T09:47:13;100812.06;;;4.95;100.00
13420;BME280;6781;58.440;15.470;2023-03-03T09:49:46;100822.75;;;5.03;100.00
13420;BME280;6781;58.440;15.470;2023-03-03T09:52:21;100816.19;;;4.98;100.00
13420;BME280;6781;58.440;15.470;2023-03-03T09:54:55;100805.13;;;5.13;100.00
13420;BME280;6781;58.440;15.470;2023-03-03T09:57:29;100796.91;;;5.06;100.00
13420;BME280;6781;58.440;15.470;2023-03-03T10:00:08;100782.06;;;5.11;100.00
13420;BME280;6781;58.440;15.470;2023-03-03T10:02:43;100793.41;;;5.23;100.00
13420;BME280;6781;58.440;15.470;2023-03-03T10:08:10;100777.91;;;5.24;100.00
13420;BME280;6781;58.440;15.470;2023-03-03T10:10:45;100782.53;;;5.34;100.00
13420;BME280;6781;58.440;15.470;2023-03-03T10:13:20;100773.50;;;5.27;100.00
13420;BME280;6781;58.440;15.470;2023-03-03T10:15:55;100766.44;;;5.30;100.00
13420;BME280;6781;58.440;15.470;2023-03-03T10:18:27;100761.63;;;5.40;100.00
13420;BME280;6781;58.440;15.470;2023-03-03T10:21:08;100760.81;;;5.23;100.00
13420;BME280;6781;58.440;15.470;2023-03-03T10:23:49;100752.28;;;5.39;100.00
13420;BME280;6781;58.440;15.470;2023-03-03T10:26:19;100744.88;;;5.33;100.00
13420;BME280;6781;58.440;15.470;2023-03-03T10:28:52;100743.22;;;5.32;100.00
13420;BME280;6781;58.440;15.470;2023-03-03T10:31:28;100737.69;;;5.23;100.00
13420;BME280;6781;58.440;15.470;2023-03-03T10:34:01;100738.78;;;5.19;100.00
13420;BME280;6781;58.440;15.470;2023-03-03T10:36:33;100736.94;;;5.21;100.00
13420;BME280;6781;58.440;15.470;2023-03-03T10:39:16;100729.13;;;5.23;100.00
13420;BME280;6781;58.440;15.470;2023-03-03T10:41:51;100720.03;;;5.17;100.00
13420;BME280;6781;58.440;15.470;2023-03-03T10:44:26;100710.88;;;5.28;100.00
13420;BME280;6781;58.440;15.470;2023-03-03T10:47:01;100708.78;;;5.20;100.00
13420;BME280;6781;58.440;15.470;2023-03-03T10:49:36;100704.91;;;5.27;100.00
13420;BME280;6781;58.440;15.470;2023-03-03T10:52:16;100694.94;;;5.37;100.00
13420;BME280;6781;58.440;15.470;2023-03-03T10:54:49;100691.13;;;5.44;100.00
13420;BME280;6781;58.440;15.470;2023-03-03T10:57:21;100676.38;;;5.32;100.00
13420;BME280;6781;58.440;15.470;2023-03-03T10:59:56;100678.78;;;5.35;100.00
13420;BME280;6781;58.440;15.470;2023-03-03T11:02:29;100663.44;;;5.33;100.00
13420;BME280;6781;58.440;15.470;2023-03-03T11:05:01;100649.19;;;5.28;100.00
13420;BME280;6781;58.440;15.470;2023-03-03T11:07:43;100630.28;;;5.29;100.00
13420;BME280;6781;58.440;15.470;2023-03-03T11:10:38;100605.00;;;5.21;100.00
13420;BME280;6781;58.440;15.470;2023-03-03T11:13:35;100610.19;;;5.35;100.00
13420;BME280;6781;58.440;15.470;2023-03-03T11:16:29;100605.13;;;5.34;100.00
13420;BME280;6781;58.440;15.470;2023-03-03T11:19:15;100601.47;;;5.38;100.00
13420;BME280;6781;58.440;15.470;2023-03-03T11:22:05;100589.44;;;5.38;100.00
13420;BME280;6781;58.440;15.470;2023-03-03T11:24:43;100574.84;;;5.39;100.00
13420;BME280;6781;58.440;15.470;2023-03-03T11:27:27;100575.31;;;5.45;100.00
13420;BME280;6781;58.440;15.470;2023-03-03T11:32:45;100573.59;;;5.60;100.00
13420;BME280;6781;58.440;15.470;2023-03-03T11:35:21;100573.63;;;5.74;100.00
13420;BME280;6781;58.440;15.470;2023-03-03T11:37:52;100576.38;;;5.85;100.00
13420;BME280;6781;58.440;15.470;2023-03-03T11:40:23;100575.72;;;5.82;100.00
13420;BME280;6781;58.440;15.470;2023-03-03T11:42:53;100565.34;;;5.83;100.00
13420;BME280;6781;58.440;15.470;2023-03-03T11:45:26;100563.91;;;5.94;100.00
13420;BME280;6781;58.440;15.470;2023-03-03T11:47:56;100556.19;;;5.94;100.00
13420;BME280;6781;58.440;15.470;2023-03-03T11:50:27;100547.53;;;5.95;100.00
13420;BME280;6781;58.440;15.470;2023-03-03T11:52:59;100546.63;;;6.10;100.00
13420;BME280;6781;58.440;15.470;2023-03-03T11:55:32;100554.72;;;6.04;100.00
13420;BME280;6781;58.440;15.470;2023-03-03T11:58:06;100537.97;;;6.11;100.00
13420;BME280;6781;58.440;15.470;2023-03-03T12:00:34;100521.63;;;5.98;100.00
13420;BME280;6781;58.440;15.470;2023-03-03T12:03:13;100512.16;;;5.98;100.00
13420;BME280;6781;58.440;15.470;2023-03-03T12:05:54;100497.00;;;5.94;100.00
13420;BME280;6781;58.440;15.470;2023-03-03T12:08:23;100476.03;;;6.00;100.00
13420;BME280;6781;58.440;15.470;2023-03-03T12:10:54;100468.03;;;5.90;100.00
13420;BME280;6781;58.440;15.470;2023-03-03T12:13:25;100469.97;;;6.01;100.00
13420;BME280;6781;58.440;15.470;2023-03-03T12:15:57;100461.25;;;5.89;100.00
13420;BME280;6781;58.440;15.470;2023-03-03T12:18:33;100449.22;;;5.90;100.00
13420;BME280;6781;58.440;15.470;2023-03-03T12:21:09;100438.91;;;5.90;100.00
13420;BME280;6781;58.440;15.470;2023-03-03T12:23:45;100435.97;;;5.96;100.00
13420;BME280;6781;58.440;15.470;2023-03-03T12:26:16;100445.22;;;5.98;100.00
13420;BME280;6781;58.440;15.470;2023-03-03T12:28:47;100445.34;;;5.97;100.00
13420;BME280;6781;58.440;15.470;2023-03-03T12:31:18;100439.25;;;5.98;100.00
13420;BME280;6781;58.440;15.470;2023-03-03T12:33:51;100422.16;;;5.97;100.00
13420;BME280;6781;58.440;15.470;2023-03-03T12:36:32;100425.47;;;5.99;100.00
13420;BME280;6781;58.440;15.470;2023-03-03T12:39:03;100424.06;;;6.07;100.00
13420;BME280;6781;58.440;15.470;2023-03-03T12:41:34;100416.81;;;6.00;100.00
13420;BME280;6781;58.440;15.470;2023-03-03T12:44:05;100403.03;;;6.01;100.00
13420;BME280;6781;58.440;15.470;2023-03-03T12:46:36;100397.25;;;5.97;100.00
13420;BME280;6781;58.440;15.470;2023-03-03T12:49:06;100385.31;;;5.96;100.00
13420;BME280;6781;58.440;15.470;2023-03-03T12:51:38;100374.91;;;5.98;100.00
13420;BME280;6781;58.440;15.470;2023-03-03T12:54:13;100368.66;;;6.02;100.00
13420;BME280;6781;58.440;15.470;2023-03-03T12:56:43;100378.13;;;6.01;100.00
13420;BME280;6781;58.440;15.470;2023-03-03T12:59:13;100354.88;;;6.03;100.00
13420;BME280;6781;58.440;15.470;2023-03-03T13:01:44;100354.47;;;6.09;100.00
13420;BME280;6781;58.440;15.470;2023-03-03T13:04:18;100346.31;;;6.02;100.00
13420;BME280;6781;58.440;15.470;2023-03-03T13:06:56;100337.56;;;6.05;100.00
13420;BME280;6781;58.440;15.470;2023-03-03T13:09:28;100325.81;;;6.01;100.00
13420;BME280;6781;58.440;15.470;2023-03-03T13:12:01;100314.59;;;6.02;100.00
13420;BME280;6781;58.440;15.470;2023-03-03T13:14:34;100308.97;;;6.09;100.00
13420;BME280;6781;58.440;15.470;2023-03-03T13:17:05;100316.78;;;6.08;100.00
13420;BME280;6781;58.440;15.470;2023-03-03T13:19:35;100295.75;;;6.01;100.00
13420;BME280;6781;58.440;15.470;2023-03-03T13:22:08;100295.66;;;6.03;100.00